Time;durP1;ratioP1;P1;durP2;ratioP2;P2;SDS_P1;SDS_P2;PMS_P1;PMS_P2;Temp;Humidity;BMP_temperature;BMP_pressure;BME280_temperature;BME280_humidity;BME280_pressure;Samples;Min_cycle;Max_cycle;Signal;HPM_P1;HPM_P2
2023/06/05 00:00:26;;;;;;;3.00;2.03;;;;;;;15.94;49.72;98106.69;5050257;28;20212;-76
2023/06/05 00:02:52;;;;;;;4.20;2.00;;;;;;;15.95;49.61;98108.34;5051131;28;20308;-76
2023/06/05 00:05:19;;;;;;;2.50;2.00;;;;;;;15.96;49.23;98107.38;5050958;28;20215;-76
2023/06/05 00:07:45;;;;;;;2.93;2.00;;;;;;;15.87;50.08;98113.53;5050998;28;20216;-76
2023/06/05 00:10:14;;;;;;;3.77;2.10;;;;;;;15.81;50.45;98119.41;5050273;28;20208;-78
2023/06/05 00:12:41;;;;;;;2.63;1.77;;;;;;;15.74;51.03;98123.59;5050711;28;20235;-76
2023/06/05 00:15:08;;;;;;;4.43;2.30;;;;;;;15.68;51.32;98125.00;5051079;28;20208;-76
2023/06/05 00:17:36;;;;;;;4.63;2.23;;;;;;;15.71;51.50;98126.56;5050921;28;20200;-76
2023/06/05 00:20:03;;;;;;;3.00;2.13;;;;;;;15.62;51.69;98130.03;5050180;28;20262;-75
2023/06/05 00:22:31;;;;;;;2.53;2.13;;;;;;;15.63;51.20;98127.25;5050691;28;20234;-76
2023/06/05 00:24:57;;;;;;;2.83;2.27;;;;;;;15.63;51.67;98137.06;5050701;28;20686;-76
2023/06/05 00:27:25;;;;;;;2.87;2.47;;;;;;;15.59;51.54;98125.81;5050620;28;20212;-75
2023/06/05 00:29:52;;;;;;;3.83;2.30;;;;;;;15.59;51.75;98125.00;5050263;28;20218;-76
2023/06/05 00:32:18;;;;;;;3.40;2.00;;;;;;;15.50;52.31;98131.13;5050829;28;20228;-75
2023/06/05 00:34:46;;;;;;;4.40;2.20;;;;;;;15.51;51.98;98127.50;5050666;28;20632;-75
2023/06/05 00:37:13;;;;;;;3.30;1.90;;;;;;;15.54;51.45;98120.09;5050645;28;20281;-76
2023/06/05 00:39:40;;;;;;;2.33;2.07;;;;;;;15.58;50.63;98118.00;5049918;28;20204;-76
2023/06/05 00:42:07;;;;;;;3.30;2.07;;;;;;;15.53;51.26;98120.22;5050335;28;20240;-76
2023/06/05 00:44:35;;;;;;;3.20;2.00;;;;;;;15.51;51.68;98127.50;5052954;28;20838;-78
2023/06/05 00:47:03;;;;;;;2.20;2.00;;;;;;;15.50;51.35;98120.47;5054357;28;20666;-76
2023/06/05 00:49:30;;;;;;;3.30;2.17;;;;;;;15.45;51.51;98134.22;5053720;28;20227;-75
2023/06/05 00:51:57;;;;;;;3.07;1.93;;;;;;;15.43;51.72;98124.66;5054331;28;20227;-75
2023/06/05 00:54:24;;;;;;;2.80;2.20;;;;;;;15.38;51.89;98116.22;5054145;28;20572;-75
2023/06/05 00:56:52;;;;;;;2.53;2.10;;;;;;;15.35;51.98;98127.19;5054344;28;20228;-75
2023/06/05 00:59:19;;;;;;;2.40;2.03;;;;;;;15.32;52.83;98143.38;5052888;28;20216;-76
2023/06/05 01:01:47;;;;;;;3.43;2.50;;;;;;;15.35;52.54;98138.69;5054038;28;20315;-76
2023/06/05 01:04:14;;;;;;;2.67;2.03;;;;;;;15.32;52.25;98127.41;5054070;28;20215;-75
2023/06/05 01:06:41;;;;;;;2.80;1.70;;;;;;;15.22;52.56;98131.88;5054039;28;20215;-76
2023/06/05 01:09:10;;;;;;;2.50;2.07;;;;;;;15.20;52.45;98128.47;5053700;28;20273;-76
2023/06/05 01:11:41;;;;;;;2.73;2.00;;;;;;;15.24;52.30;98137.88;5054055;28;20232;-75
2023/06/05 01:14:17;;;;;;;2.83;2.10;;;;;;;15.20;52.57;98129.34;5054005;28;20283;-76
2023/06/05 01:16:48;;;;;;;2.57;2.00;;;;;;;15.11;52.74;98140.81;5054137;28;20297;-76
2023/06/05 01:19:16;;;;;;;2.20;2.00;;;;;;;14.97;53.65;98137.66;5053102;28;20591;-75
2023/06/05 01:21:42;;;;;;;2.90;2.10;;;;;;;14.94;53.50;98135.22;5053988;28;20312;-78
2023/06/05 01:24:13;;;;;;;3.47;2.30;;;;;;;14.89;53.91;98142.75;5053643;28;20215;-75
2023/06/05 01:26:52;;;;;;;2.93;2.27;;;;;;;14.77;54.33;98147.34;5054248;28;20215;-75
2023/06/05 01:29:24;;;;;;;3.80;2.37;;;;;;;14.75;54.32;98143.13;5052612;28;20210;-75
2023/06/05 01:31:56;;;;;;;3.20;2.50;;;;;;;14.59;55.51;98158.69;5053176;28;20228;-75
2023/06/05 01:34:24;;;;;;;2.27;1.90;;;;;;;14.44;56.80;98173.28;5053739;28;20201;-75
2023/06/05 01:36:52;;;;;;;2.60;2.03;;;;;;;14.30;58.07;98170.97;5053607;28;20681;-75
2023/06/05 01:39:21;;;;;;;4.27;2.27;;;;;;;14.17;58.91;98181.72;5052700;28;20210;-75
2023/06/05 01:41:50;;;;;;;2.10;1.90;;;;;;;14.05;59.65;98185.38;5053214;28;20235;-75
2023/06/05 01:44:18;;;;;;;5.80;2.27;;;;;;;13.99;60.25;98187.72;5053205;28;20216;-75
2023/06/05 01:46:44;;;;;;;2.00;1.80;;;;;;;13.93;60.38;98193.53;5053551;28;20208;-75
2023/06/05 01:49:11;;;;;;;3.07;2.03;;;;;;;13.91;60.86;98182.16;5052624;28;20219;-75
2023/06/05 01:51:38;;;;;;;2.50;2.00;;;;;;;13.91;60.90;98184.81;5053192;28;20721;-77
2023/06/05 01:54:05;;;;;;;2.17;1.70;;;;;;;13.88;60.64;98190.41;5052768;28;20219;-76
2023/06/05 01:56:35;;;;;;;2.93;2.27;;;;;;;13.84;61.04;98183.63;5053079;28;20232;-76
2023/06/05 01:59:06;;;;;;;2.93;2.20;;;;;;;13.79;61.05;98185.81;5052960;28;20215;-75
2023/06/05 02:01:34;;;;;;;2.97;2.17;;;;;;;13.73;61.08;98178.34;5053077;28;20231;-76
2023/06/05 02:04:04;;;;;;;2.20;1.97;;;;;;;13.67;61.10;98181.50;5053022;28;20208;-75
2023/06/05 02:06:35;;;;;;;2.63;2.43;;;;;;;13.64;61.00;98182.59;5052973;28;20200;-75
2023/06/05 02:09:02;;;;;;;2.60;2.00;;;;;;;13.58;61.57;98179.59;5052715;28;20200;-76
2023/06/05 02:11:29;;;;;;;3.03;2.20;;;;;;;13.56;61.94;98181.53;5052151;28;20598;-75
2023/06/05 02:13:56;;;;;;;2.73;2.30;;;;;;;13.57;63.19;98180.56;5052924;28;20656;-75
2023/06/05 02:16:25;;;;;;;5.83;2.33;;;;;;;13.52;63.50;98188.06;5052829;28;20255;-75
2023/06/05 02:18:52;;;;;;;2.67;2.07;;;;;;;13.54;64.37;98191.44;5052774;28;20238;-75
2023/06/05 02:21:18;;;;;;;2.80;1.97;;;;;;;13.45;64.81;98195.66;5051931;28;20250;-77
2023/06/05 02:23:45;;;;;;;2.37;1.80;;;;;;;13.33;65.51;98195.81;5052545;28;20223;-77
2023/06/05 02:26:11;;;;;;;2.97;2.13;;;;;;;13.28;65.45;98188.22;5052538;28;20207;-78
2023/06/05 02:28:38;;;;;;;3.60;2.43;;;;;;;13.29;65.26;98189.03;5052447;28;20654;-77
2023/06/05 02:31:06;;;;;;;2.97;2.33;;;;;;;13.24;66.51;98192.06;5051872;28;20224;-75
2023/06/05 02:33:32;;;;;;;2.63;2.20;;;;;;;13.24;66.71;98185.91;5052347;28;20219;-75
2023/06/05 02:35:59;;;;;;;3.23;2.07;;;;;;;13.16;66.06;98183.88;5052315;28;20232;-75
2023/06/05 02:38:26;;;;;;;2.30;1.90;;;;;;;13.22;65.98;98179.88;5052071;28;20219;-75
2023/06/05 02:40:53;;;;;;;2.43;2.23;;;;;;;13.26;66.83;98189.28;5051634;28;20238;-75
2023/06/05 02:43:21;;;;;;;2.53;1.93;;;;;;;13.24;67.11;98188.56;5052220;28;20219;-76
2023/06/05 02:45:48;;;;;;;2.80;2.10;;;;;;;13.23;68.20;98192.19;5052154;28;20674;-75
2023/06/05 02:48:16;;;;;;;3.27;2.27;;;;;;;13.18;67.15;98186.38;5052217;28;20302;-75
2023/06/05 02:50:42;;;;;;;4.53;2.33;;;;;;;13.21;66.08;98184.31;5051230;28;20240;-77
2023/06/05 02:53:10;;;;;;;3.80;2.33;;;;;;;13.23;65.66;98173.59;5051920;28;20678;-76
2023/06/05 02:55:37;;;;;;;2.73;2.07;;;;;;;13.18;65.62;98173.97;5051932;28;20212;-75
2023/06/05 02:58:03;;;;;;;3.03;2.50;;;;;;;13.05;66.43;98183.00;5052079;28;20262;-76
2023/06/05 03:00:31;;;;;;;5.10;2.30;;;;;;;13.03;66.52;98187.59;5051041;28;20212;-75
2023/06/05 03:02:57;;;;;;;2.50;2.30;;;;;;;12.99;67.12;98180.81;5051975;28;20215;-78
2023/06/05 03:05:26;;;;;;;3.93;2.20;;;;;;;12.93;67.75;98183.91;5051545;28;20218;-75
2023/06/05 03:07:56;;;;;;;3.67;2.40;;;;;;;12.88;67.47;98180.78;5051305;28;20212;-76
2023/06/05 03:10:23;;;;;;;2.90;2.43;;;;;;;12.84;68.22;98195.25;5051037;28;20662;-76
2023/06/05 03:12:50;;;;;;;3.60;2.40;;;;;;;12.81;68.59;98188.38;5051876;28;20211;-76
2023/06/05 03:15:17;;;;;;;2.57;2.37;;;;;;;12.80;68.42;98193.78;5051737;28;20219;-75
2023/06/05 03:17:45;;;;;;;3.43;2.33;;;;;;;12.80;68.90;98191.16;5051524;28;20233;-76
2023/06/05 03:20:12;;;;;;;5.90;2.20;;;;;;;12.85;68.24;98189.00;5050736;28;20208;-76
2023/06/05 03:22:40;;;;;;;3.60;2.40;;;;;;;12.86;68.10;98182.72;5051719;28;20228;-76
2023/06/05 03:25:08;;;;;;;4.13;2.63;;;;;;;12.85;68.74;98187.16;5051591;28;20220;-76
2023/06/05 03:27:34;;;;;;;3.33;2.23;;;;;;;12.81;68.85;98177.78;5051363;28;20744;-76
2023/06/05 03:30:01;;;;;;;3.67;2.40;;;;;;;12.79;68.76;98181.50;5050621;28;20204;-76
2023/06/05 03:32:28;;;;;;;2.40;2.20;;;;;;;12.76;68.70;98181.72;5051205;28;20288;-76
2023/06/05 03:34:55;;;;;;;2.67;2.40;;;;;;;12.78;68.61;98179.81;5051190;28;20215;-76
2023/06/05 03:37:21;;;;;;;3.50;2.40;;;;;;;12.79;68.94;98182.38;5051356;28;20267;-76
2023/06/05 03:39:49;;;;;;;2.73;2.40;;;;;;;12.79;68.46;98194.75;5050719;28;20218;-76
2023/06/05 03:42:16;;;;;;;3.07;2.13;;;;;;;12.75;68.93;98193.31;5091988;22;20297;-87
2023/06/05 03:44:42;;;;;;;3.43;2.40;;;;;;;12.75;68.98;98198.59;5099578;28;20218;-85
2023/06/05 03:47:09;;;;;;;3.23;2.20;;;;;;;12.73;69.23;98200.53;5098551;28;20210;-86
2023/06/05 03:49:36;;;;;;;2.93;2.27;;;;;;;12.72;69.30;98198.84;5098810;28;20313;-85
2023/06/05 03:52:02;;;;;;;3.93;2.10;;;;;;;12.72;69.54;98202.34;5099471;28;20256;-85
2023/06/05 03:54:32;;;;;;;2.70;2.10;;;;;;;12.73;69.15;98195.22;5099478;28;20206;-85
2023/06/05 03:57:00;;;;;;;2.80;2.10;;;;;;;12.72;69.20;98196.19;5100852;28;20627;-86
2023/06/05 03:59:28;;;;;;;3.23;2.40;;;;;;;12.77;69.12;98202.81;5099076;28;20301;-86
2023/06/05 04:01:55;;;;;;;3.03;2.50;;;;;;;12.78;69.39;98206.34;5098485;28;20250;-86
2023/06/05 04:04:21;;;;;;;2.97;2.10;;;;;;;12.82;69.48;98205.13;5092855;28;20217;-86
2023/06/05 04:06:48;;;;;;;2.83;2.37;;;;;;;12.87;68.61;98203.81;5091370;28;20290;-86
2023/06/05 04:09:15;;;;;;;2.27;2.07;;;;;;;12.91;68.79;98209.72;5090570;28;20207;-86
2023/06/05 04:11:43;;;;;;;4.00;2.10;;;;;;;12.91;69.28;98209.72;5091171;28;20317;-85
2023/06/05 04:14:11;;;;;;;4.47;2.53;;;;;;;12.99;69.37;98213.53;5091168;28;20214;-86
2023/06/05 04:16:39;;;;;;;3.40;2.37;;;;;;;13.01;70.38;98216.88;5090988;28;20234;-86
2023/06/05 04:19:07;;;;;;;2.60;2.13;;;;;;;13.04;69.72;98221.13;5094563;28;20494;-86
2023/06/05 04:21:34;;;;;;;2.60;2.27;;;;;;;13.05;70.14;98228.97;5095169;28;20234;-86
2023/06/05 04:24:00;;;;;;;3.87;2.50;;;;;;;13.11;70.35;98227.63;5095519;28;20302;-86
2023/06/05 04:26:27;;;;;;;3.97;2.40;;;;;;;13.23;68.56;98218.72;5095204;28;20582;-86
2023/06/05 04:28:55;;;;;;;5.63;2.70;;;;;;;13.23;68.64;98218.72;5094815;28;20206;-86
2023/06/05 04:31:24;;;;;;;5.17;2.80;;;;;;;13.23;68.87;98219.56;5094417;28;20248;-86
2023/06/05 04:33:51;;;;;;;5.23;2.60;;;;;;;13.30;68.39;98223.44;5095104;28;20225;-86
2023/06/05 04:36:18;;;;;;;3.77;2.07;;;;;;;13.37;68.28;98229.94;5094703;28;20222;-86
2023/06/05 04:38:45;;;;;;;3.27;2.60;;;;;;;13.43;68.71;98225.94;5094855;28;20255;-86
2023/06/05 04:41:11;;;;;;;4.70;2.70;;;;;;;13.43;69.39;98228.59;5093776;28;20287;-86
2023/06/05 04:43:38;;;;;;;6.80;2.60;;;;;;;13.47;69.15;98219.44;5094646;28;20580;-86
2023/06/05 04:46:04;;;;;;;2.87;2.30;;;;;;;13.45;68.57;98213.41;5094793;28;20210;-86
2023/06/05 04:48:34;;;;;;;2.70;2.30;;;;;;;13.48;68.12;98216.66;5094665;28;20218;-86
2023/06/05 04:51:01;;;;;;;4.73;2.23;;;;;;;13.55;67.87;98209.91;5093850;28;20207;-86
2023/06/05 04:53:28;;;;;;;3.43;2.80;;;;;;;13.64;71.31;98233.06;5094299;28;20217;-86
2023/06/05 04:55:55;;;;;;;3.03;2.73;;;;;;;13.83;73.74;98240.41;5094310;28;20209;-86
2023/06/05 04:58:22;;;;;;;3.33;2.60;;;;;;;13.90;75.14;98244.25;5094532;28;20222;-86
2023/06/05 05:00:49;;;;;;;3.70;2.60;;;;;;;13.97;75.06;98245.44;5093486;28;20217;-86
2023/06/05 05:03:16;;;;;;;4.17;3.00;;;;;;;14.18;74.91;98236.56;5094081;28;20209;-86
2023/06/05 05:05:44;;;;;;;4.80;2.90;;;;;;;14.70;71.80;98222.47;5094355;28;20294;-86
2023/06/05 05:08:10;;;;;;;4.40;3.03;;;;;;;15.41;67.87;98209.19;5094179;28;20206;-86
2023/06/05 05:10:37;;;;;;;3.00;2.23;;;;;;;16.09;62.10;98184.25;5093305;28;20211;-86
2023/06/05 05:13:04;;;;;;;4.30;2.60;;;;;;;16.69;57.97;98159.13;5094265;28;20253;-86
2023/06/05 05:15:31;;;;;;;6.13;2.90;;;;;;;17.29;56.80;98161.34;5094009;28;20207;-86
2023/06/05 05:17:58;;;;;;;3.70;2.73;;;;;;;17.90;56.92;98171.34;5094110;28;20261;-86
2023/06/05 05:20:24;;;;;;;4.07;2.80;;;;;;;18.44;55.94;98162.38;5093416;28;20673;-86
2023/06/05 05:22:52;;;;;;;4.60;3.10;;;;;;;18.82;54.09;98152.16;5094155;28;20242;-86
2023/06/05 05:25:18;;;;;;;4.30;2.40;;;;;;;19.18;51.96;98142.16;5094534;28;20237;-86
2023/06/05 05:27:45;;;;;;;5.87;2.50;;;;;;;19.41;51.25;98136.13;5094011;28;20203;-86
2023/06/05 05:30:13;;;;;;;3.83;2.80;;;;;;;19.62;50.21;98141.91;5092519;28;20206;-86
2023/06/05 05:32:40;;;;;;;3.60;2.67;;;;;;;19.95;49.25;98132.13;5093794;28;20731;-86
2023/06/05 05:35:07;;;;;;;5.90;2.60;;;;;;;20.14;48.42;98132.72;5094115;28;20342;-86
2023/06/05 05:37:34;;;;;;;4.37;2.80;;;;;;;20.25;47.06;98123.50;5093577;28;20249;-86
2023/06/05 05:40:03;;;;;;;6.60;2.67;;;;;;;20.49;46.75;98118.13;5093257;28;20212;-86
2023/06/05 05:42:30;;;;;;;3.97;2.43;;;;;;;20.73;46.40;98127.00;5093650;28;20325;-86
2023/06/05 05:44:56;;;;;;;3.20;2.40;;;;;;;20.97;45.67;98116.25;5093550;28;20207;-86
2023/06/05 05:47:23;;;;;;;4.30;2.17;;;;;;;21.14;45.16;98123.28;5093756;28;20223;-86
2023/06/05 05:49:49;;;;;;;4.80;2.53;;;;;;;21.29;44.69;98110.81;5092946;28;20211;-86
2023/06/05 05:52:16;;;;;;;3.80;2.50;;;;;;;21.44;44.27;98103.69;5093289;28;20227;-86
2023/06/05 05:54:42;;;;;;;3.97;2.60;;;;;;;21.47;44.48;98119.47;5093363;28;20207;-87
2023/06/05 05:57:11;;;;;;;4.30;2.60;;;;;;;21.61;44.35;98116.06;5093481;28;20620;-80
2023/06/05 05:59:37;;;;;;;4.57;2.93;;;;;;;21.71;44.25;98116.69;5092592;28;20260;-81
2023/06/05 06:02:09;;;;;;;3.60;2.80;;;;;;;21.88;44.04;98123.69;5093164;28;20585;-75
2023/06/05 06:04:35;;;;;;;3.67;2.77;;;;;;;22.12;44.15;98126.22;5093128;28;20214;-75
2023/06/05 06:07:02;;;;;;;5.60;2.80;;;;;;;22.29;44.89;98143.97;5092861;28;20850;-80
2023/06/05 06:09:28;;;;;;;3.83;2.50;;;;;;;22.48;45.18;98148.91;5092671;28;20238;-81
2023/06/05 06:11:55;;;;;;;3.27;2.67;;;;;;;22.53;44.30;98135.75;5092824;28;20222;-80
2023/06/05 06:14:23;;;;;;;4.73;2.93;;;;;;;22.73;44.24;98136.91;5093351;28;20244;-82
2023/06/05 06:16:51;;;;;;;3.47;2.63;;;;;;;22.79;43.53;98125.41;5092732;28;20203;-81
2023/06/05 06:19:22;;;;;;;3.80;2.60;;;;;;;22.88;44.10;98132.41;5092201;28;20633;-81
2023/06/05 06:21:49;;;;;;;4.03;2.67;;;;;;;23.07;44.26;98134.59;5092946;28;20588;-81
2023/06/05 06:24:16;;;;;;;5.30;2.77;;;;;;;23.27;43.32;98124.97;5092913;28;20203;-80
2023/06/05 06:26:42;;;;;;;5.30;2.83;;;;;;;23.30;42.45;98124.59;5092824;28;20252;-80
2023/06/05 06:29:09;;;;;;;3.53;2.60;;;;;;;23.46;43.02;98128.97;5091879;28;20203;-80
2023/06/05 06:31:37;;;;;;;4.40;2.57;;;;;;;23.42;42.61;98127.66;5092071;28;20223;-79
2023/06/05 06:34:03;;;;;;;4.27;2.40;;;;;;;23.49;43.13;98145.63;5092499;28;20603;-79
2023/06/05 06:36:30;;;;;;;5.07;2.80;;;;;;;23.50;42.10;98120.31;5092914;28;20213;-80
2023/06/05 06:38:56;;;;;;;3.80;2.60;;;;;;;23.30;41.90;98111.13;5092326;28;20229;-80
2023/06/05 06:41:23;;;;;;;4.93;2.50;;;;;;;23.22;41.70;98116.56;5091675;28;20241;-79
2023/06/05 06:43:49;;;;;;;4.17;2.43;;;;;;;23.31;42.54;98130.81;5091566;28;20210;-79
2023/06/05 06:46:16;;;;;;;5.47;2.90;;;;;;;23.50;43.05;98135.66;5092097;28;20240;-79
2023/06/05 06:48:44;;;;;;;2.63;2.20;;;;;;;23.70;41.25;98121.41;5092382;28;20226;-80
2023/06/05 06:51:11;;;;;;;2.92;2.63;;;;;;;23.84;39.84;98100.81;5090680;28;20433;-79
2023/06/05 06:53:38;;;;;;;4.60;2.80;;;;;;;23.69;41.01;98113.47;5092503;28;20210;-79
2023/06/05 06:56:04;;;;;;;2.80;2.50;;;;;;;23.74;41.03;98111.06;5092218;28;20215;-79
2023/06/05 06:58:31;;;;;;;4.30;2.20;;;;;;;23.79;40.58;98109.50;5092260;28;20262;-80
2023/06/05 07:00:57;;;;;;;3.97;2.40;;;;;;;23.63;40.67;98109.69;5091337;28;20657;-80
2023/06/05 07:03:24;;;;;;;4.17;2.57;;;;;;;23.32;41.61;98113.59;5092390;28;20210;-79
2023/06/05 07:05:52;;;;;;;4.67;2.83;;;;;;;22.92;41.23;98109.44;5092368;28;20202;-79
2023/06/05 07:08:18;;;;;;;4.20;2.70;;;;;;;22.34;42.77;98125.44;5091799;28;20207;-80
2023/06/05 07:10:45;;;;;;;2.63;2.43;;;;;;;21.70;43.02;98111.53;5091176;28;20206;-79
2023/06/05 07:13:12;;;;;;;3.93;2.40;;;;;;;21.07;44.30;98125.00;5091283;28;20219;-79
2023/06/05 07:15:38;;;;;;;2.80;2.50;;;;;;;20.76;45.45;98128.53;5091434;28;20211;-79
2023/06/05 07:18:05;;;;;;;4.37;2.90;;;;;;;20.59;45.94;98133.06;5091628;28;20227;-79
2023/06/05 07:20:31;;;;;;;3.23;2.33;;;;;;;20.55;48.08;98163.94;5090937;28;20336;-79
2023/06/05 07:22:59;;;;;;;3.23;2.60;;;;;;;20.64;45.48;98130.72;5091517;28;20230;-80
2023/06/05 07:25:27;;;;;;;3.73;2.50;;;;;;;20.44;47.93;98158.91;5091623;28;20210;-79
2023/06/05 07:27:54;;;;;;;3.07;2.37;;;;;;;20.41;47.79;98161.09;5091281;28;20584;-79
2023/06/05 07:30:20;;;;;;;3.00;2.60;;;;;;;20.41;47.86;98156.56;5090979;28;20304;-86
2023/06/05 07:32:47;;;;;;;3.00;2.63;;;;;;;20.42;47.47;98155.53;5089545;28;20944;-87
2023/06/05 07:35:14;;;;;;;5.87;3.03;;;;;;;20.55;47.32;98152.38;5089202;28;20589;-87
2023/06/05 07:37:41;;;;;;;5.50;3.28;;;;;;;20.70;47.51;98156.91;5089881;28;20436;-82
2023/06/05 07:40:10;;;;;;;6.27;3.20;;;;;;;20.64;47.60;98156.72;5090871;28;20211;-84
2023/06/05 07:42:37;;;;;;;4.60;2.90;;;;;;;20.63;48.58;98161.28;5090142;28;20234;-84
2023/06/05 07:45:05;;;;;;;4.70;2.97;;;;;;;20.70;47.80;98151.53;5088807;28;20305;-84
2023/06/05 07:47:31;;;;;;;4.77;2.87;;;;;;;20.80;48.59;98154.88;5088620;28;20198;-83
2023/06/05 07:49:59;;;;;;;6.13;3.40;;;;;;;20.91;48.81;98165.31;5088056;28;20301;-83
2023/06/05 07:52:26;;;;;;;4.70;2.63;;;;;;;21.05;49.29;98178.09;5089885;28;20234;-82
2023/06/05 07:54:53;;;;;;;5.40;3.13;;;;;;;21.16;48.96;98172.31;5091185;28;20213;-84
2023/06/05 07:57:21;;;;;;;3.97;3.30;;;;;;;21.24;48.86;98171.47;5091015;28;20213;-80
2023/06/05 07:59:48;;;;;;;5.77;3.63;;;;;;;21.29;47.50;98151.16;5090355;28;20699;-89
2023/06/05 08:02:15;;;;;;;4.53;3.53;;;;;;;21.25;46.63;98140.88;5091902;28;20234;-82
2023/06/05 08:04:42;;;;;;;3.77;3.13;;;;;;;21.30;47.19;98147.44;5091113;28;20213;-82
2023/06/05 08:07:08;;;;;;;3.57;3.17;;;;;;;21.41;50.46;98192.81;5091022;28;20221;-82
2023/06/05 08:09:36;;;;;;;4.03;3.50;;;;;;;21.44;48.97;98168.25;5090310;28;20574;-82
2023/06/05 08:12:03;;;;;;;7.93;3.50;;;;;;;21.46;50.23;98186.91;5090768;28;20557;-82
2023/06/05 08:14:31;;;;;;;3.57;3.10;;;;;;;21.65;50.81;98192.69;5091118;28;20213;-82
2023/06/05 08:16:57;;;;;;;5.27;3.23;;;;;;;21.74;50.73;98186.31;5090921;28;20846;-82
2023/06/05 08:19:24;;;;;;;4.17;3.77;;;;;;;21.99;50.58;98182.50;5090231;28;20241;-77
2023/06/05 08:21:53;;;;;;;4.17;3.30;;;;;;;22.07;51.57;98193.22;5090549;28;20720;-81
2023/06/05 08:24:20;;;;;;;4.13;3.50;;;;;;;22.04;49.32;98173.91;5090657;28;20211;-83
2023/06/05 08:26:47;;;;;;;3.73;3.37;;;;;;;22.07;51.34;98193.22;5090970;28;20225;-81
2023/06/05 08:29:13;;;;;;;4.93;3.83;;;;;;;22.14;50.49;98178.03;5090349;28;20225;-81
2023/06/05 08:31:41;;;;;;;5.60;3.37;;;;;;;22.20;51.40;98187.28;5090763;28;20222;-85
2023/06/05 08:34:08;;;;;;;4.37;3.57;;;;;;;22.41;50.73;98182.94;5091151;28;20221;-86
2023/06/05 08:36:35;;;;;;;5.50;3.83;;;;;;;22.56;51.15;98181.16;5090819;28;20207;-87
2023/06/05 08:39:01;;;;;;;4.60;3.90;;;;;;;22.61;49.34;98159.09;5089965;28;20230;-88
2023/06/05 08:41:30;;;;;;;5.80;4.00;;;;;;;22.70;49.71;98164.25;5090267;28;20234;-87
2023/06/05 08:43:57;;;;;;;5.10;3.80;;;;;;;22.67;48.21;98151.13;5088296;28;20209;-87
2023/06/05 08:46:28;;;;;;;5.13;3.83;;;;;;;22.59;48.14;98148.50;5087733;28;20203;-87
2023/06/05 08:48:57;;;;;;;7.30;4.03;;;;;;;22.64;47.54;98142.56;5088154;28;20203;-88
2023/06/05 08:51:24;;;;;;;4.07;3.67;;;;;;;22.52;50.13;98176.31;5089015;28;20314;-86
2023/06/05 08:53:55;;;;;;;4.50;4.10;;;;;;;22.63;51.81;98186.69;5091309;28;20226;-91
2023/06/05 08:56:22;;;;;;;6.10;4.47;;;;;;;22.85;52.04;98183.16;5090761;28;20253;-84
2023/06/05 08:58:50;;;;;;;8.20;4.57;;;;;;;23.09;49.68;98162.19;5090981;28;20227;-92
2023/06/05 09:01:17;;;;;;;5.97;4.40;;;;;;;23.08;50.35;98176.69;5090234;28;20273;-92
2023/06/05 09:03:44;;;;;;;4.23;3.83;;;;;;;23.19;49.92;98165.50;5092029;28;20199;-91
2023/06/05 09:06:12;;;;;;;5.47;4.70;;;;;;;23.28;51.67;98185.16;5094411;28;20206;-88
2023/06/05 09:08:39;;;;;;;6.80;4.50;;;;;;;23.46;51.30;98178.34;5094616;28;20213;-87
2023/06/05 09:11:25;;;;;;;5.00;4.50;;;;;;;23.57;50.75;98168.94;5093863;28;20245;-90
2023/06/05 09:13:52;;;;;;;5.03;4.00;;;;;;;23.69;51.35;98172.84;5095231;28;20203;-92
2023/06/05 09:16:21;;;;;;;4.33;3.93;;;;;;;23.75;48.90;98154.06;5094659;28;20211;-93
2023/06/05 09:18:55;;;;;;;4.93;4.10;;;;;;;23.77;50.09;98160.09;5094655;28;20238;-91
2023/06/05 09:21:30;;;;;;;7.13;4.10;;;;;;;23.85;50.48;98161.88;5093392;28;20233;-90
2023/06/05 09:24:16;;;;;;;6.20;4.40;;;;;;;23.80;50.66;98165.16;5094521;28;20279;-90
2023/06/05 09:26:51;;;;;;;7.40;4.63;;;;;;;23.89;50.25;98153.22;5094304;28;20289;-89
2023/06/05 09:29:26;;;;;;;6.03;4.77;;;;;;;23.95;49.99;98155.19;5093793;28;20287;-89
2023/06/05 09:31:53;;;;;;;6.53;4.97;;;;;;;24.01;47.69;98132.00;5093970;28;20237;-89
2023/06/05 09:34:25;;;;;;;6.83;5.17;;;;;;;23.99;49.60;98148.38;5093999;28;20206;-89
2023/06/05 09:36:54;;;;;;;7.93;4.57;;;;;;;23.97;49.00;98136.94;5094031;28;20215;-89
2023/06/05 09:39:22;;;;;;;5.03;4.30;;;;;;;23.98;50.39;98151.28;5092902;28;20708;-89
2023/06/05 09:41:51;;;;;;;5.50;4.10;;;;;;;24.02;48.06;98128.28;5093901;28;20763;-89
2023/06/05 09:44:18;;;;;;;4.93;4.20;;;;;;;24.02;48.11;98126.38;5093069;28;20210;-89
2023/06/05 09:46:55;;;;;;;5.10;4.50;;;;;;;23.93;49.72;98143.75;5092682;28;20203;-89
2023/06/05 09:49:25;;;;;;;4.80;4.07;;;;;;;24.02;50.34;98145.28;5090285;28;20210;-89
2023/06/05 09:51:53;;;;;;;6.37;4.33;;;;;;;24.09;46.76;98104.88;5090812;28;20331;-89
2023/06/05 09:54:22;;;;;;;4.70;4.30;;;;;;;24.12;47.09;98107.19;5090730;28;20217;-90
2023/06/05 09:56:50;;;;;;;4.90;4.20;;;;;;;24.28;48.87;98120.44;5093234;28;20356;-89
2023/06/05 09:59:21;;;;;;;4.33;3.93;;;;;;;24.51;46.15;98097.59;5092411;28;20266;-88
2023/06/05 10:01:49;;;;;;;7.27;3.93;;;;;;;24.72;45.66;98092.22;5093815;28;20234;-88
2023/06/05 10:04:19;;;;;;;5.53;3.77;;;;;;;24.85;45.63;98086.94;5094198;28;20301;-87
2023/06/05 10:06:48;;;;;;;4.60;3.73;;;;;;;24.82;45.11;98084.59;5093220;28;20209;-86
2023/06/05 10:09:16;;;;;;;4.87;3.80;;;;;;;24.93;44.63;98073.25;5092989;28;20203;-89
2023/06/05 10:11:43;;;;;;;6.13;4.60;;;;;;;24.76;43.88;98055.66;5093067;28;20226;-92
2023/06/05 10:14:10;;;;;;;7.55;4.60;;;;;;;25.00;43.10;98063.31;5088643;28;20509;-91
2023/06/05 10:16:37;;;;;;;5.80;3.83;;;;;;;24.89;42.94;98058.47;5091720;28;20701;-85
2023/06/05 10:19:04;;;;;;;4.77;3.73;;;;;;;24.92;43.69;98059.94;5091796;28;20231;-85
2023/06/05 10:21:31;;;;;;;5.63;3.73;;;;;;;24.90;40.74;98030.41;5091189;28;20222;-91
2023/06/05 10:24:00;;;;;;;4.83;3.37;;;;;;;24.93;40.53;98030.00;5091840;28;20207;-87
2023/06/05 10:26:44;;;;;;;4.33;3.53;;;;;;;24.91;40.68;98031.22;5092263;28;20209;-86
2023/06/05 10:29:26;;;;;;;3.70;3.40;;;;;;;24.85;41.35;98038.25;5090734;28;20271;-90
2023/06/05 10:31:58;;;;;;;5.00;3.60;;;;;;;24.87;43.57;98062.41;5091935;28;20316;-90
2023/06/05 10:34:42;;;;;;;4.00;3.60;;;;;;;24.96;42.28;98056.66;5091975;28;20211;-88
2023/06/05 10:37:31;;;;;;;3.17;2.87;;;;;;;24.85;38.67;98010.38;5090949;28;20211;-87
2023/06/05 10:39:58;;;;;;;5.33;3.23;;;;;;;24.79;37.98;98001.19;5090601;28;20256;-91
2023/06/05 10:42:28;;;;;;;3.57;3.10;;;;;;;24.77;38.10;98005.13;5092227;28;20280;-89
2023/06/05 10:44:56;;;;;;;4.63;2.90;;;;;;;24.79;34.99;97946.28;5092713;28;20248;-91
2023/06/05 10:47:53;;;;;;;4.80;2.83;;;;;;;24.88;38.07;98000.00;5092482;28;20211;-89
2023/06/05 10:50:26;;;;;;;4.63;2.93;;;;;;;24.92;36.52;97974.25;5091684;28;20225;-86
2023/06/05 10:52:54;;;;;;;3.77;3.07;;;;;;;25.20;37.76;98002.06;5092548;28;20254;-86
2023/06/05 10:55:21;;;;;;;4.40;3.30;;;;;;;25.31;36.95;97987.16;5092506;28;20234;-86
2023/06/05 10:58:10;;;;;;;4.87;2.90;;;;;;;25.29;37.06;97992.78;5092664;28;20675;-86
2023/06/05 11:00:38;;;;;;;3.33;3.00;;;;;;;25.38;39.37;98018.63;5091819;28;20603;-85
2023/06/05 11:03:05;;;;;;;4.33;2.97;;;;;;;25.53;38.83;98016.59;5092168;28;20738;-88
2023/06/05 11:05:32;;;;;;;3.40;3.10;;;;;;;25.51;34.89;97951.03;5092528;28;20209;-89
2023/06/05 11:08:12;;;;;;;3.55;3.10;;;;;;;25.54;35.52;97966.84;5091243;28;20517;-84
2023/06/05 11:10:53;;;;;;;3.23;2.93;;;;;;;25.61;37.85;98011.00;5091424;28;20678;-83
2023/06/05 11:13:21;;;;;;;4.10;3.27;;;;;;;25.72;36.61;97977.94;5092087;28;20227;-86
2023/06/05 11:15:53;;;;;;;4.28;2.88;;;;;;;25.71;36.16;97980.84;5092009;28;20660;-87
2023/06/05 11:18:35;;;;;;;4.18;2.90;;;;;;;25.78;36.23;97977.13;5091928;28;20238;-88
2023/06/05 11:21:02;;;;;;;6.17;3.30;;;;;;;25.77;37.20;97986.28;5091250;28;20217;-88
2023/06/05 11:23:29;;;;;;;5.72;3.45;;;;;;;25.82;33.77;97945.88;5091545;28;20213;-87
2023/06/05 11:26:00;;;;;;;3.42;2.78;;;;;;;25.76;34.91;97946.72;5091949;28;20211;-88
2023/06/05 11:28:42;;;;;;;4.50;3.27;;;;;;;25.81;37.42;97987.56;5091099;28;20219;-87
2023/06/05 11:31:09;;;;;;;5.77;3.10;;;;;;;25.95;37.50;97989.28;5091307;28;20250;-88
2023/06/05 11:33:36;;;;;;;3.90;3.35;;;;;;;26.06;37.15;97975.13;5091403;28;20199;-87
2023/06/05 11:36:05;;;;;;;4.17;3.27;;;;;;;26.24;37.68;97999.75;5091479;28;20715;-82
2023/06/05 11:38:32;;;;;;;3.70;3.30;;;;;;;26.29;35.19;97953.88;5091563;28;20206;-84